TimePDT,TemperatureF,Dew PointF,Humidity,Sea Level PressureIn,VisibilityMPH,Wind Direction,Wind SpeedMPH,Gust SpeedMPH,PrecipitationIn,Events,Conditions,WindDirDegrees,DateUTC
12:53 AM,53.1,44.1,71,29.84,10.0,South,8.1,-,N/A,,Overcast,190,2013-09-28 07:53:00
1:53 AM,52.0,44.1,74,29.83,10.0,South,13.8,-,N/A,,Partly Cloudy,170,2013-09-28 08:53:00
2:19 AM,51.8,44.6,76,29.82,10.0,South,12.7,-,N/A,,Mostly Cloudy,180,2013-09-28 09:19:00
2:53 AM,52.0,44.1,74,29.82,10.0,South,11.5,-,N/A,,Scattered Clouds,180,2013-09-28 09:53:00
3:25 AM,51.8,44.6,76,29.80,10.0,South,9.2,-,N/A,,Mostly Cloudy,170,2013-09-28 10:25:00
3:39 AM,51.8,44.6,76,29.79,10.0,South,8.1,-,N/A,,Scattered Clouds,190,2013-09-28 10:39:00
3:53 AM,51.1,44.1,77,29.79,10.0,South,9.2,-,N/A,,Partly Cloudy,190,2013-09-28 10:53:00
4:53 AM,52.0,44.1,74,29.78,10.0,South,11.5,20.7,N/A,,Mostly Cloudy,170,2013-09-28 11:53:00
5:53 AM,51.1,44.1,77,29.78,10.0,South,9.2,-,N/A,,Overcast,180,2013-09-28 12:53:00
6:53 AM,50.0,45.0,83,29.75,10.0,South,8.1,-,0.00,Rain,Light Rain,190,2013-09-28 13:53:00
7:53 AM,48.9,46.0,90,29.74,10.0,SSW,4.6,-,0.02,Rain,Light Rain,210,2013-09-28 14:53:00
8:53 AM,50.0,46.9,89,29.71,10.0,South,6.9,-,0.02,Rain,Light Rain,190,2013-09-28 15:53:00
9:53 AM,50.0,48.0,93,29.68,10.0,South,8.1,-,0.00,Rain,Light Rain,190,2013-09-28 16:53:00
10:41 AM,50.0,48.2,94,29.65,8.0,SSW,8.1,-,0.01,Rain,Light Rain,200,2013-09-28 17:41:00
10:53 AM,51.1,48.9,92,29.65,9.0,SSW,9.2,-,0.01,Rain,Light Rain,210,2013-09-28 17:53:00
11:40 AM,51.8,50.0,94,29.62,2.0,South,9.2,-,0.01,Rain,Light Rain,190,2013-09-28 18:40:00
11:53 AM,51.1,50.0,96,29.62,2.0,South,6.9,-,0.02,Rain,Light Rain,190,2013-09-28 18:53:00
12:05 PM,51.8,51.8,100,29.60,3.0,South,6.9,-,0.01,Rain,Light Rain,190,2013-09-28 19:05:00
12:11 PM,51.8,51.8,100,29.60,2.5,South,5.8,-,0.01,Rain,Light Rain,190,2013-09-28 19:11:00
12:40 PM,51.8,51.8,100,29.58,3.0,SSW,5.8,-,0.02,Rain,Light Rain,200,2013-09-28 19:40:00
12:53 PM,52.0,51.1,97,29.58,6.0,South,6.9,-,0.02,,Overcast,190,2013-09-28 19:53:00
1:08 PM,51.8,51.8,100,29.56,5.0,South,6.9,-,N/A,,Overcast,190,2013-09-28 20:08:00
1:22 PM,53.6,51.8,94,29.55,7.0,South,8.1,-,N/A,,Overcast,190,2013-09-28 20:22:00
1:53 PM,53.1,52.0,96,29.53,10.0,SSW,5.8,-,N/A,,Overcast,200,2013-09-28 20:53:00
2:53 PM,55.0,53.1,93,29.51,10.0,South,9.2,-,0.00,Rain,Light Rain,180,2013-09-28 21:53:00
3:11 PM,55.4,53.6,94,29.51,10.0,SSW,6.9,-,0.00,Rain,Light Rain,210,2013-09-28 22:11:00
3:53 PM,57.0,54.0,89,29.47,10.0,South,8.1,-,0.00,,Overcast,180,2013-09-28 22:53:00
4:36 PM,59.0,53.6,82,29.44,10.0,South,12.7,-,N/A,,Overcast,190,2013-09-28 23:36:00
4:53 PM,59.0,53.1,81,29.43,10.0,South,15.0,26.5,N/A,,Overcast,180,2013-09-28 23:53:00
5:53 PM,62.1,52.0,70,29.39,10.0,South,15.0,24.2,0.01,Rain,Light Rain,180,2013-09-29 00:53:00
6:53 PM,63.0,50.0,63,29.34,10.0,SSE,25.3,36.8,0.00,,Overcast,160,2013-09-29 01:53:00
7:53 PM,64.0,48.9,58,29.31,10.0,SSE,25.3,38.0,N/A,,Overcast,160,2013-09-29 02:53:00
8:53 PM,60.1,51.1,72,29.34,10.0,South,19.6,27.6,0.01,Rain,Light Rain,180,2013-09-29 03:53:00
9:53 PM,57.0,52.0,83,29.37,10.0,South,8.1,17.3,0.01,Rain,Light Rain,190,2013-09-29 04:53:00
10:53 PM,53.1,46.0,77,29.34,10.0,SSE,15.0,-,0.04,Rain,Light Rain,150,2013-09-29 05:53:00
11:53 PM,55.0,45.0,69,29.37,10.0,South,13.8,-,0.00,,Clear,180,2013-09-29 06:53:00